createdAt,value
2022-11-26T00:01:00.918Z,16.63
2022-11-26T00:06:03.320Z,17.33
2022-11-26T00:11:08.053Z,15.73
2022-11-26T00:16:13.160Z,16.53
2022-11-26T00:21:26.013Z,15.95
2022-11-26T00:26:27.701Z,17.63
2022-11-26T00:31:29.833Z,16.30
2022-11-26T00:36:32.378Z,16.55
2022-11-26T00:41:38.424Z,14.82
2022-11-26T00:46:40.100Z,14.80
2022-11-26T00:51:42.877Z,12.57
2022-11-26T00:56:45.174Z,13.55
2022-11-26T01:01:46.996Z,12.80
2022-11-26T01:06:48.768Z,14.07
2022-11-26T01:11:54.016Z,13.55
2022-11-26T01:16:57.221Z,13.37
2022-11-26T01:21:59.056Z,11.80
2022-11-26T01:27:00.797Z,12.82
2022-11-26T01:32:02.612Z,12.50
2022-11-26T01:37:12.043Z,11.50
2022-11-26T01:42:41.738Z,12.88
2022-11-26T01:47:43.605Z,11.57
2022-11-26T01:52:45.326Z,10.77
2022-11-26T01:57:47.303Z,10.82
2022-11-26T02:02:49.440Z,11.05
2022-11-26T02:07:53.382Z,10.70
2022-11-26T02:12:55.242Z,11.57
2022-11-26T02:18:06.227Z,11.23
2022-11-26T02:23:45.527Z,11.45
2022-11-26T02:29:14.930Z,11.88
2022-11-26T02:34:22.647Z,11.18
2022-11-26T02:39:27.339Z,10.23
2022-11-26T02:44:33.511Z,11.00
2022-11-26T02:49:37.245Z,10.82
2022-11-26T02:54:41.567Z,10.77
2022-11-26T02:59:43.664Z,10.25
2022-11-26T03:04:50.705Z,10.88
2022-11-26T03:09:58.226Z,9.80
2022-11-26T03:15:00.075Z,11.20
2022-11-26T03:20:01.977Z,10.48
2022-11-26T03:25:04.879Z,9.43
2022-11-26T03:30:07.520Z,9.63
2022-11-26T03:35:09.677Z,10.67
2022-11-26T03:40:11.723Z,10.20
2022-11-26T03:45:13.553Z,10.15
2022-11-26T03:50:15.374Z,10.90
2022-11-26T03:55:17.155Z,10.63
2022-11-26T04:00:19.484Z,10.35
2022-11-26T04:05:21.299Z,8.43
2022-11-26T04:10:23.125Z,8.10
2022-11-26T04:15:24.959Z,7.68
2022-11-26T04:20:26.657Z,8.40
2022-11-26T04:25:28.448Z,8.23
2022-11-26T04:30:30.202Z,7.38
2022-11-26T04:35:32.059Z,7.07
2022-11-26T04:40:33.903Z,7.45
2022-11-26T04:45:35.693Z,8.32
2022-11-26T04:50:37.665Z,7.50
2022-11-26T04:55:39.579Z,6.68
2022-11-26T05:00:41.328Z,6.78
2022-11-26T05:05:43.149Z,7.28
2022-11-26T05:10:44.859Z,7.10
2022-11-26T05:15:46.587Z,7.10
2022-11-26T05:20:48.255Z,6.40
2022-11-26T05:25:51.002Z,6.15
2022-11-26T05:31:01.630Z,6.18
2022-11-26T05:36:03.966Z,6.97
2022-11-26T05:41:05.686Z,7.22
2022-11-26T05:46:08.855Z,8.73
2022-11-26T05:51:10.703Z,8.27
2022-11-26T05:56:12.457Z,7.43
2022-11-26T06:01:14.235Z,9.20
2022-11-26T06:06:15.942Z,7.50
2022-11-26T06:11:17.676Z,8.35
2022-11-26T06:16:19.452Z,8.35
2022-11-26T06:21:21.274Z,9.05
2022-11-26T06:26:23.050Z,7.25
2022-11-26T06:31:24.790Z,8.03
2022-11-26T06:36:26.522Z,8.73
2022-11-26T06:41:28.224Z,8.10
2022-11-26T06:46:31.015Z,8.13
2022-11-26T06:51:33.654Z,8.48
2022-11-26T06:56:35.415Z,7.88
2022-11-26T07:01:37.215Z,10.90
2022-11-26T07:06:39.035Z,12.15
2022-11-26T07:11:41.548Z,11.53
2022-11-26T07:16:43.220Z,13.77
2022-11-26T07:21:45.019Z,12.75
2022-11-26T07:26:46.928Z,12.47
2022-11-26T07:31:48.674Z,13.45
2022-11-26T07:36:53.958Z,13.93
2022-11-26T07:41:58.423Z,15.02
2022-11-26T07:47:00.133Z,13.53
2022-11-26T07:52:01.858Z,12.48
2022-11-26T07:57:03.536Z,13.32
2022-11-26T08:02:05.554Z,12.30
2022-11-26T08:07:07.392Z,12.48
2022-11-26T08:12:09.160Z,13.00
2022-11-26T08:17:10.880Z,17.23
2022-11-26T08:22:12.558Z,16.30
2022-11-26T08:27:14.231Z,13.88
2022-11-26T08:32:15.907Z,13.73
2022-11-26T08:37:17.579Z,11.88
2022-11-26T08:42:19.447Z,11.70
2022-11-26T08:47:21.553Z,12.25
2022-11-26T08:52:23.332Z,12.57
2022-11-26T08:57:25.054Z,11.65
2022-11-26T09:02:26.839Z,12.07
2022-11-26T09:07:28.595Z,12.80
2022-11-26T09:12:30.291Z,12.05
2022-11-26T09:17:32.095Z,14.63
2022-11-26T09:22:34.950Z,13.55
2022-11-26T09:27:36.747Z,13.90
2022-11-26T09:32:38.521Z,13.60
2022-11-26T09:37:40.340Z,15.13
2022-11-26T09:43:07.022Z,14.80
2022-11-26T09:48:16.145Z,14.98
2022-11-26T09:53:25.835Z,13.45
2022-11-26T09:58:42.759Z,13.83
2022-11-26T10:03:44.769Z,13.52
2022-11-26T10:09:05.104Z,14.85
2022-11-26T10:14:37.706Z,13.40
2022-11-26T10:20:06.683Z,14.45
2022-11-26T10:25:24.606Z,12.90
2022-11-26T10:30:29.329Z,12.50
2022-11-26T10:35:31.102Z,14.23
2022-11-26T10:40:33.242Z,13.25
2022-11-26T10:45:44.079Z,13.80
2022-11-26T10:50:59.072Z,13.15
2022-11-26T10:56:03.839Z,13.20
2022-11-26T11:01:06.793Z,12.93
2022-11-26T11:06:20.440Z,13.43
2022-11-26T11:11:28.010Z,14.18
2022-11-26T11:16:39.629Z,13.23
2022-11-26T11:21:48.034Z,15.27
2022-11-26T11:26:52.298Z,15.30
2022-11-26T11:31:54.915Z,15.82
2022-11-26T11:37:02.882Z,16.90
2022-11-26T11:42:14.567Z,17.75
2022-11-26T11:47:21.930Z,18.33
2022-11-26T11:52:42.180Z,18.00
2022-11-26T11:58:25.577Z,19.77
2022-11-26T12:03:52.241Z,21.95
2022-11-26T12:09:11.433Z,20.90
2022-11-26T12:14:29.801Z,20.90
2022-11-26T12:19:55.729Z,20.10
2022-11-26T12:25:04.053Z,22.27
2022-11-26T12:30:18.775Z,21.45
2022-11-26T12:35:34.165Z,20.97
2022-11-26T12:40:41.974Z,21.52
2022-11-26T12:46:05.015Z,21.48
2022-11-26T12:51:26.246Z,22.52
2022-11-26T12:56:40.861Z,21.02
2022-11-26T13:01:42.650Z,21.95
2022-11-26T13:07:03.114Z,20.53
2022-11-26T13:12:42.553Z,21.07
2022-11-26T13:17:46.475Z,21.50
2022-11-26T13:23:03.143Z,19.95
2022-11-26T13:28:27.376Z,19.92
2022-11-26T13:33:35.069Z,19.67
2022-11-26T13:39:14.534Z,16.90
2022-11-26T13:44:31.046Z,18.27
2022-11-26T13:49:46.744Z,18.92
2022-11-26T13:54:56.324Z,17.55
2022-11-26T13:59:59.594Z,16.27
2022-11-26T14:05:07.313Z,16.35
2022-11-26T14:10:34.761Z,17.63
2022-11-26T14:15:42.418Z,17.08
2022-11-26T14:20:59.478Z,16.23
2022-11-26T14:26:01.231Z,14.57
2022-11-26T14:31:22.814Z,16.00
2022-11-26T14:36:29.984Z,15.57
2022-11-26T14:42:00.505Z,16.55
2022-11-26T14:47:27.656Z,14.52
2022-11-26T14:52:35.470Z,17.27
2022-11-26T14:57:57.756Z,15.52
2022-11-26T15:03:00.147Z,16.95
2022-11-26T15:08:04.160Z,17.73
2022-11-26T15:13:16.387Z,17.07
2022-11-26T15:18:21.518Z,18.38
2022-11-26T15:23:37.646Z,16.60
2022-11-26T15:28:39.542Z,17.33
2022-11-26T15:33:42.470Z,18.45
2022-11-26T15:39:03.278Z,19.90
2022-11-26T15:44:05.393Z,19.13
2022-11-26T15:49:21.523Z,21.30
2022-11-26T15:54:49.519Z,21.05
2022-11-26T16:00:06.154Z,23.73
2022-11-26T16:05:42.597Z,25.27
2022-11-26T16:10:58.491Z,21.63
2022-11-26T16:16:17.236Z,21.45
2022-11-26T16:21:22.218Z,22.65
2022-11-26T16:26:24.518Z,19.90
2022-11-26T16:31:26.987Z,22.63
2022-11-26T16:36:34.033Z,22.27
2022-11-26T16:41:36.346Z,24.98
2022-11-26T16:46:38.884Z,23.15
2022-11-26T16:51:40.669Z,22.23
2022-11-26T16:56:43.076Z,20.92
2022-11-26T17:01:45.383Z,20.50
2022-11-26T17:06:48.020Z,21.38
2022-11-26T17:11:49.953Z,18.50
2022-11-26T17:16:51.920Z,20.13
2022-11-26T17:21:53.724Z,18.83
2022-11-26T17:26:56.420Z,19.80
2022-11-26T17:31:58.513Z,18.45
2022-11-26T17:37:00.559Z,18.00
2022-11-26T17:42:02.270Z,16.65
2022-11-26T17:47:16.708Z,18.93
2022-11-26T17:52:19.797Z,30.73
2022-11-26T17:57:21.537Z,18.60
2022-11-26T18:02:23.644Z,19.33
2022-11-26T18:07:25.426Z,17.23
2022-11-26T18:12:28.571Z,16.73
2022-11-26T18:17:30.896Z,16.27
2022-11-26T18:22:33.129Z,15.63
2022-11-26T18:27:36.309Z,14.52
2022-11-26T18:32:38.563Z,13.10
2022-11-26T18:37:41.121Z,11.80
2022-11-26T18:42:43.897Z,12.15
2022-11-26T18:47:45.813Z,11.98
2022-11-26T18:52:47.583Z,11.80
2022-11-26T18:57:49.269Z,13.32
2022-11-26T19:02:51.327Z,10.43
2022-11-26T19:07:53.502Z,9.77
2022-11-26T19:12:56.070Z,9.90
2022-11-26T19:17:58.506Z,11.27
2022-11-26T19:23:00.195Z,10.07
2022-11-26T19:28:04.987Z,9.85
2022-11-26T19:33:07.131Z,9.30
2022-11-26T19:38:08.917Z,8.73
2022-11-26T19:43:10.732Z,7.97
2022-11-26T19:48:12.515Z,9.25
2022-11-26T19:53:14.241Z,8.60
2022-11-26T19:58:15.932Z,9.02
2022-11-26T20:03:17.814Z,9.05
2022-11-26T20:08:19.583Z,8.93
2022-11-26T20:13:21.274Z,9.73
2022-11-26T20:18:23.042Z,10.00
2022-11-26T20:23:25.081Z,8.30
2022-11-26T20:28:26.869Z,9.07
2022-11-26T20:33:28.653Z,10.20
2022-11-26T20:38:30.374Z,8.60
2022-11-26T20:43:33.136Z,8.37
2022-11-26T20:48:36.161Z,8.68
2022-11-26T20:53:38.873Z,9.35
2022-11-26T20:58:41.340Z,10.83
2022-11-26T21:03:44.717Z,10.63
2022-11-26T21:08:47.046Z,8.68
2022-11-26T21:13:48.763Z,9.37
2022-11-26T21:18:53.408Z,8.63
2022-11-26T21:23:56.784Z,8.50
2022-11-26T21:29:00.643Z,8.40
2022-11-26T21:34:07.861Z,8.23
2022-11-26T21:39:14.291Z,8.87
2022-11-26T21:44:16.446Z,8.77
2022-11-26T21:49:18.404Z,9.02
2022-11-26T21:54:20.764Z,9.15
2022-11-26T21:59:23.136Z,8.43
2022-11-26T22:04:25.130Z,8.68
2022-11-26T22:09:26.990Z,8.07
2022-11-26T22:14:28.713Z,7.60
2022-11-26T22:19:30.420Z,7.97
2022-11-26T22:24:32.569Z,7.47
2022-11-26T22:29:34.286Z,7.20
2022-11-26T22:34:36.038Z,8.27
2022-11-26T22:39:37.993Z,8.05
2022-11-26T22:44:39.984Z,6.55
2022-11-26T22:49:41.826Z,5.95
2022-11-26T22:54:43.773Z,6.10
2022-11-26T22:59:45.493Z,6.07
2022-11-26T23:04:47.138Z,6.40
2022-11-26T23:09:49.046Z,5.90
2022-11-26T23:14:50.976Z,5.80
2022-11-26T23:19:52.726Z,6.95
2022-11-26T23:24:54.430Z,6.00
2022-11-26T23:29:56.112Z,6.83
2022-11-26T23:34:57.945Z,5.63
2022-11-26T23:39:59.652Z,6.63
2022-11-26T23:45:01.535Z,5.83
2022-11-26T23:50:04.052Z,5.43
2022-11-26T23:55:06.203Z,6.85
